sensor_id;sensor_type;location;lat;lon;timestamp;temperature;humidity
69747;DHT22;57018;50.278;19.134;2022-08-02T00:00:36;19.10;98.30
69747;DHT22;57018;50.278;19.134;2022-08-02T00:03:02;19.00;98.10
69747;DHT22;57018;50.278;19.134;2022-08-02T00:05:28;19.00;98.40
69747;DHT22;57018;50.278;19.134;2022-08-02T00:07:54;18.90;98.90
69747;DHT22;57018;50.278;19.134;2022-08-02T00:10:20;18.90;98.90
69747;DHT22;57018;50.278;19.134;2022-08-02T00:12:46;18.80;98.90
69747;DHT22;57018;50.278;19.134;2022-08-02T00:15:12;18.80;99.20
69747;DHT22;57018;50.278;19.134;2022-08-02T00:17:38;18.70;99.60
69747;DHT22;57018;50.278;19.134;2022-08-02T00:20:05;18.60;99.90
69747;DHT22;57018;50.278;19.134;2022-08-02T00:22:31;18.70;99.90
69747;DHT22;57018;50.278;19.134;2022-08-02T00:24:57;18.70;99.90
69747;DHT22;57018;50.278;19.134;2022-08-02T00:27:23;18.70;99.90
69747;DHT22;57018;50.278;19.134;2022-08-02T00:29:49;18.60;99.90
69747;DHT22;57018;50.278;19.134;2022-08-02T00:32:16;18.50;99.90
69747;DHT22;57018;50.278;19.134;2022-08-02T00:34:42;18.50;99.90
69747;DHT22;57018;50.278;19.134;2022-08-02T00:37:08;18.60;99.90
69747;DHT22;57018;50.278;19.134;2022-08-02T00:39:34;18.50;99.90
69747;DHT22;57018;50.278;19.134;2022-08-02T00:42:02;18.50;99.90
69747;DHT22;57018;50.278;19.134;2022-08-02T00:44:28;18.40;99.90
69747;DHT22;57018;50.278;19.134;2022-08-02T00:46:54;18.40;99.90
69747;DHT22;57018;50.278;19.134;2022-08-02T00:49:20;18.40;99.90
69747;DHT22;57018;50.278;19.134;2022-08-02T00:51:46;18.40;99.90
69747;DHT22;57018;50.278;19.134;2022-08-02T00:54:13;18.40;99.90
69747;DHT22;57018;50.278;19.134;2022-08-02T00:56:39;18.40;99.90
69747;DHT22;57018;50.278;19.134;2022-08-02T00:59:05;18.40;99.90
69747;DHT22;57018;50.278;19.134;2022-08-02T01:01:32;18.30;99.90
69747;DHT22;57018;50.278;19.134;2022-08-02T01:04:10;18.30;99.90
69747;DHT22;57018;50.278;19.134;2022-08-02T01:06:38;18.30;99.90
69747;DHT22;57018;50.278;19.134;2022-08-02T01:09:05;18.40;99.90
69747;DHT22;57018;50.278;19.134;2022-08-02T01:11:33;18.40;99.90
69747;DHT22;57018;50.278;19.134;2022-08-02T01:14:03;18.50;99.90
69747;DHT22;57018;50.278;19.134;2022-08-02T01:16:32;18.50;99.90
69747;DHT22;57018;50.278;19.134;2022-08-02T01:19:05;18.50;99.90
69747;DHT22;57018;50.278;19.134;2022-08-02T01:26:42;18.80;99.90
69747;DHT22;57018;50.278;19.134;2022-08-02T01:32:02;19.00;99.50
69747;DHT22;57018;50.278;19.134;2022-08-02T01:34:33;18.90;99.50
69747;DHT22;57018;50.278;19.134;2022-08-02T01:37:14;18.90;99.10
69747;DHT22;57018;50.278;19.134;2022-08-02T01:39:39;19.00;98.50
69747;DHT22;57018;50.278;19.134;2022-08-02T01:42:08;18.90;99.00
69747;DHT22;57018;50.278;19.134;2022-08-02T01:44:39;19.00;98.30
69747;DHT22;57018;50.278;19.134;2022-08-02T01:49:36;18.90;98.70
69747;DHT22;57018;50.278;19.134;2022-08-02T01:52:04;18.90;99.00
69747;DHT22;57018;50.278;19.134;2022-08-02T01:54:49;18.90;98.90
69747;DHT22;57018;50.278;19.134;2022-08-02T01:57:18;18.80;98.90
69747;DHT22;57018;50.278;19.134;2022-08-02T01:59:48;18.90;99.00
69747;DHT22;57018;50.278;19.134;2022-08-02T02:02:15;18.90;99.20
69747;DHT22;57018;50.278;19.134;2022-08-02T02:04:44;18.90;98.80
69747;DHT22;57018;50.278;19.134;2022-08-02T02:07:12;19.00;98.70
69747;DHT22;57018;50.278;19.134;2022-08-02T02:09:42;19.10;98.70
69747;DHT22;57018;50.278;19.134;2022-08-02T02:12:11;19.10;98.20
69747;DHT22;57018;50.278;19.134;2022-08-02T02:14:39;19.10;97.70
69747;DHT22;57018;50.278;19.134;2022-08-02T02:17:07;19.10;98.00
69747;DHT22;57018;50.278;19.134;2022-08-02T02:19:36;19.30;97.80
69747;DHT22;57018;50.278;19.134;2022-08-02T02:22:03;19.30;97.60
69747;DHT22;57018;50.278;19.134;2022-08-02T02:24:29;19.20;97.70
69747;DHT22;57018;50.278;19.134;2022-08-02T02:26:58;19.10;97.80
69747;DHT22;57018;50.278;19.134;2022-08-02T02:29:28;19.20;97.60
69747;DHT22;57018;50.278;19.134;2022-08-02T02:31:57;19.30;97.20
69747;DHT22;57018;50.278;19.134;2022-08-02T02:34:34;19.40;96.80
69747;DHT22;57018;50.278;19.134;2022-08-02T02:37:00;19.50;96.90
69747;DHT22;57018;50.278;19.134;2022-08-02T02:39:27;19.40;96.60
69747;DHT22;57018;50.278;19.134;2022-08-02T02:41:57;19.40;96.50
69747;DHT22;57018;50.278;19.134;2022-08-02T02:44:28;19.50;96.30
69747;DHT22;57018;50.278;19.134;2022-08-02T02:46:56;19.50;96.60
69747;DHT22;57018;50.278;19.134;2022-08-02T02:49:23;19.60;96.30
69747;DHT22;57018;50.278;19.134;2022-08-02T02:51:51;19.50;96.30
69747;DHT22;57018;50.278;19.134;2022-08-02T02:54:19;19.60;95.80
69747;DHT22;57018;50.278;19.134;2022-08-02T02:56:46;19.60;95.70
69747;DHT22;57018;50.278;19.134;2022-08-02T02:59:13;19.60;95.60
69747;DHT22;57018;50.278;19.134;2022-08-02T03:01:40;19.80;95.40
69747;DHT22;57018;50.278;19.134;2022-08-02T03:04:09;19.80;95.20
69747;DHT22;57018;50.278;19.134;2022-08-02T03:06:36;19.80;95.10
69747;DHT22;57018;50.278;19.134;2022-08-02T03:09:06;19.90;94.70
69747;DHT22;57018;50.278;19.134;2022-08-02T03:11:36;19.80;94.50
69747;DHT22;57018;50.278;19.134;2022-08-02T03:14:03;19.80;94.50
69747;DHT22;57018;50.278;19.134;2022-08-02T03:16:30;19.90;94.30
69747;DHT22;57018;50.278;19.134;2022-08-02T03:18:57;19.80;94.80
69747;DHT22;57018;50.278;19.134;2022-08-02T03:21:25;19.80;94.50
69747;DHT22;57018;50.278;19.134;2022-08-02T03:23:51;19.80;94.50
69747;DHT22;57018;50.278;19.134;2022-08-02T03:26:17;19.70;94.90
69747;DHT22;57018;50.278;19.134;2022-08-02T03:28:43;19.70;94.70
69747;DHT22;57018;50.278;19.134;2022-08-02T03:31:09;19.80;94.70
69747;DHT22;57018;50.278;19.134;2022-08-02T03:33:36;19.80;94.20
69747;DHT22;57018;50.278;19.134;2022-08-02T03:36:07;19.90;94.40
69747;DHT22;57018;50.278;19.134;2022-08-02T03:41:01;19.80;94.30
69747;DHT22;57018;50.278;19.134;2022-08-02T03:43:30;19.70;93.80
69747;DHT22;57018;50.278;19.134;2022-08-02T03:45:57;19.70;94.30
69747;DHT22;57018;50.278;19.134;2022-08-02T03:48:24;19.70;94.20
69747;DHT22;57018;50.278;19.134;2022-08-02T03:50:51;19.70;94.30
69747;DHT22;57018;50.278;19.134;2022-08-02T03:53:18;19.70;94.50
69747;DHT22;57018;50.278;19.134;2022-08-02T03:55:45;19.80;94.20
69747;DHT22;57018;50.278;19.134;2022-08-02T03:58:18;19.80;94.10
69747;DHT22;57018;50.278;19.134;2022-08-02T04:00:45;19.70;94.20
69747;DHT22;57018;50.278;19.134;2022-08-02T04:03:12;19.70;94.00
69747;DHT22;57018;50.278;19.134;2022-08-02T04:05:38;19.70;94.30
69747;DHT22;57018;50.278;19.134;2022-08-02T04:08:04;19.80;93.90
69747;DHT22;57018;50.278;19.134;2022-08-02T04:10:31;19.80;93.40
69747;DHT22;57018;50.278;19.134;2022-08-02T04:12:59;19.80;93.70
69747;DHT22;57018;50.278;19.134;2022-08-02T04:15:25;19.80;93.80
69747;DHT22;57018;50.278;19.134;2022-08-02T04:17:54;19.90;93.60
69747;DHT22;57018;50.278;19.134;2022-08-02T04:20:26;19.90;93.60
69747;DHT22;57018;50.278;19.134;2022-08-02T04:23:01;20.00;93.60
69747;DHT22;57018;50.278;19.134;2022-08-02T04:25:25;19.90;93.20
69747;DHT22;57018;50.278;19.134;2022-08-02T04:27:52;20.10;92.80
69747;DHT22;57018;50.278;19.134;2022-08-02T04:30:19;20.10;92.30
69747;DHT22;57018;50.278;19.134;2022-08-02T04:32:46;20.10;92.90
69747;DHT22;57018;50.278;19.134;2022-08-02T04:35:12;20.30;92.20
69747;DHT22;57018;50.278;19.134;2022-08-02T04:37:40;20.30;91.90
69747;DHT22;57018;50.278;19.134;2022-08-02T04:40:11;20.20;91.90
69747;DHT22;57018;50.278;19.134;2022-08-02T04:42:38;20.30;91.80
69747;DHT22;57018;50.278;19.134;2022-08-02T04:45:07;20.40;91.50
69747;DHT22;57018;50.278;19.134;2022-08-02T04:47:33;20.40;91.60
69747;DHT22;57018;50.278;19.134;2022-08-02T04:49:59;20.50;90.90
69747;DHT22;57018;50.278;19.134;2022-08-02T04:52:25;20.50;91.10
69747;DHT22;57018;50.278;19.134;2022-08-02T04:54:51;20.70;90.90
69747;DHT22;57018;50.278;19.134;2022-08-02T04:57:19;20.70;90.00
69747;DHT22;57018;50.278;19.134;2022-08-02T05:00:05;20.80;89.70
69747;DHT22;57018;50.278;19.134;2022-08-02T05:02:33;21.00;88.10
69747;DHT22;57018;50.278;19.134;2022-08-02T05:04:59;21.10;87.20
69747;DHT22;57018;50.278;19.134;2022-08-02T05:07:25;21.10;86.70
69747;DHT22;57018;50.278;19.134;2022-08-02T05:09:51;21.10;86.90
69747;DHT22;57018;50.278;19.134;2022-08-02T05:12:17;21.00;86.80
69747;DHT22;57018;50.278;19.134;2022-08-02T05:14:45;21.10;86.90
69747;DHT22;57018;50.278;19.134;2022-08-02T05:17:11;21.30;86.70
69747;DHT22;57018;50.278;19.134;2022-08-02T05:19:37;21.60;86.10
69747;DHT22;57018;50.278;19.134;2022-08-02T05:22:03;21.80;85.80
69747;DHT22;57018;50.278;19.134;2022-08-02T05:24:29;22.00;84.90
69747;DHT22;57018;50.278;19.134;2022-08-02T05:26:55;22.20;84.50
69747;DHT22;57018;50.278;19.134;2022-08-02T05:29:21;22.50;84.00
69747;DHT22;57018;50.278;19.134;2022-08-02T05:31:48;22.60;83.10
69747;DHT22;57018;50.278;19.134;2022-08-02T05:34:14;22.80;82.10
69747;DHT22;57018;50.278;19.134;2022-08-02T05:36:40;22.90;81.80
69747;DHT22;57018;50.278;19.134;2022-08-02T05:39:06;22.90;81.50
69747;DHT22;57018;50.278;19.134;2022-08-02T05:41:34;22.90;81.50
69747;DHT22;57018;50.278;19.134;2022-08-02T05:44:01;23.00;81.10
69747;DHT22;57018;50.278;19.134;2022-08-02T05:46:27;23.00;80.90
69747;DHT22;57018;50.278;19.134;2022-08-02T05:48:53;23.00;81.10
69747;DHT22;57018;50.278;19.134;2022-08-02T05:51:22;22.80;80.80
69747;DHT22;57018;50.278;19.134;2022-08-02T05:53:54;22.60;80.30
69747;DHT22;57018;50.278;19.134;2022-08-02T05:56:33;22.50;81.20
69747;DHT22;57018;50.278;19.134;2022-08-02T05:59:14;22.50;80.80
69747;DHT22;57018;50.278;19.134;2022-08-02T06:01:41;22.40;81.10
69747;DHT22;57018;50.278;19.134;2022-08-02T06:04:11;22.20;82.10
69747;DHT22;57018;50.278;19.134;2022-08-02T06:06:42;22.00;82.30
69747;DHT22;57018;50.278;19.134;2022-08-02T06:09:16;22.10;82.50
69747;DHT22;57018;50.278;19.134;2022-08-02T06:11:46;22.10;82.30
69747;DHT22;57018;50.278;19.134;2022-08-02T06:14:13;22.00;82.70
69747;DHT22;57018;50.278;19.134;2022-08-02T06:16:41;22.10;82.30
69747;DHT22;57018;50.278;19.134;2022-08-02T06:19:11;22.20;81.80
69747;DHT22;57018;50.278;19.134;2022-08-02T06:21:41;22.30;82.10
69747;DHT22;57018;50.278;19.134;2022-08-02T06:24:08;22.40;81.60
69747;DHT22;57018;50.278;19.134;2022-08-02T06:26:35;22.70;81.30
69747;DHT22;57018;50.278;19.134;2022-08-02T06:29:03;22.70;80.80
69747;DHT22;57018;50.278;19.134;2022-08-02T06:31:30;22.80;79.80
69747;DHT22;57018;50.278;19.134;2022-08-02T06:33:56;22.90;79.80
69747;DHT22;57018;50.278;19.134;2022-08-02T06:36:48;23.00;79.50
69747;DHT22;57018;50.278;19.134;2022-08-02T06:39:23;23.20;78.90
69747;DHT22;57018;50.278;19.134;2022-08-02T06:41:51;23.30;78.60
69747;DHT22;57018;50.278;19.134;2022-08-02T06:44:19;23.50;78.10
69747;DHT22;57018;50.278;19.134;2022-08-02T06:46:45;23.50;77.30
69747;DHT22;57018;50.278;19.134;2022-08-02T06:49:11;23.80;75.90
69747;DHT22;57018;50.278;19.134;2022-08-02T06:51:37;24.00;75.30
69747;DHT22;57018;50.278;19.134;2022-08-02T06:54:03;24.00;75.00
69747;DHT22;57018;50.278;19.134;2022-08-02T06:56:29;24.00;74.60
69747;DHT22;57018;50.278;19.134;2022-08-02T06:58:55;24.00;74.80
69747;DHT22;57018;50.278;19.134;2022-08-02T07:01:21;24.10;74.40
69747;DHT22;57018;50.278;19.134;2022-08-02T07:03:47;24.10;74.10
69747;DHT22;57018;50.278;19.134;2022-08-02T07:06:14;24.20;73.70
69747;DHT22;57018;50.278;19.134;2022-08-02T07:08:40;24.10;73.80
69747;DHT22;57018;50.278;19.134;2022-08-02T07:11:07;24.10;74.10
69747;DHT22;57018;50.278;19.134;2022-08-02T07:13:35;24.00;74.40
69747;DHT22;57018;50.278;19.134;2022-08-02T07:16:02;24.00;74.00
69747;DHT22;57018;50.278;19.134;2022-08-02T07:18:29;24.10;74.00
69747;DHT22;57018;50.278;19.134;2022-08-02T07:20:55;24.10;73.90
69747;DHT22;57018;50.278;19.134;2022-08-02T07:23:21;24.20;73.90
69747;DHT22;57018;50.278;19.134;2022-08-02T07:25:47;24.00;73.80
69747;DHT22;57018;50.278;19.134;2022-08-02T07:28:15;24.00;74.00
69747;DHT22;57018;50.278;19.134;2022-08-02T07:30:41;24.00;74.60
69747;DHT22;57018;50.278;19.134;2022-08-02T07:33:08;24.00;74.10
69747;DHT22;57018;50.278;19.134;2022-08-02T07:35:35;24.10;73.20
69747;DHT22;57018;50.278;19.134;2022-08-02T07:38:01;24.10;73.20
69747;DHT22;57018;50.278;19.134;2022-08-02T07:40:28;24.50;72.70
69747;DHT22;57018;50.278;19.134;2022-08-02T07:42:55;24.80;72.00
69747;DHT22;57018;50.278;19.134;2022-08-02T07:45:22;25.00;70.60
69747;DHT22;57018;50.278;19.134;2022-08-02T07:47:49;25.30;70.10
69747;DHT22;57018;50.278;19.134;2022-08-02T07:50:17;25.30;69.70
69747;DHT22;57018;50.278;19.134;2022-08-02T07:52:44;25.40;68.50
69747;DHT22;57018;50.278;19.134;2022-08-02T07:55:12;25.40;67.80
69747;DHT22;57018;50.278;19.134;2022-08-02T07:57:45;25.50;68.20
69747;DHT22;57018;50.278;19.134;2022-08-02T08:00:08;25.60;67.80
69747;DHT22;57018;50.278;19.134;2022-08-02T08:02:35;25.60;67.10
69747;DHT22;57018;50.278;19.134;2022-08-02T08:05:01;25.50;67.10
69747;DHT22;57018;50.278;19.134;2022-08-02T08:07:27;25.10;67.90
69747;DHT22;57018;50.278;19.134;2022-08-02T08:09:53;25.00;68.30
69747;DHT22;57018;50.278;19.134;2022-08-02T08:12:20;24.80;69.20
69747;DHT22;57018;50.278;19.134;2022-08-02T08:14:46;24.60;69.30
69747;DHT22;57018;50.278;19.134;2022-08-02T08:17:12;24.70;68.90
69747;DHT22;57018;50.278;19.134;2022-08-02T08:19:38;24.80;68.30
69747;DHT22;57018;50.278;19.134;2022-08-02T08:22:05;25.10;67.50
69747;DHT22;57018;50.278;19.134;2022-08-02T08:24:31;25.30;66.90
69747;DHT22;57018;50.278;19.134;2022-08-02T08:26:57;25.70;66.30
69747;DHT22;57018;50.278;19.134;2022-08-02T08:29:23;25.90;64.50
69747;DHT22;57018;50.278;19.134;2022-08-02T08:31:51;26.00;64.30
69747;DHT22;57018;50.278;19.134;2022-08-02T08:34:17;26.00;64.50
69747;DHT22;57018;50.278;19.134;2022-08-02T08:36:43;25.60;64.50
69747;DHT22;57018;50.278;19.134;2022-08-02T08:39:10;25.70;64.80
69747;DHT22;57018;50.278;19.134;2022-08-02T08:41:36;25.90;64.10
69747;DHT22;57018;50.278;19.134;2022-08-02T08:44:03;25.50;64.70
69747;DHT22;57018;50.278;19.134;2022-08-02T08:46:30;24.90;66.80
69747;DHT22;57018;50.278;19.134;2022-08-02T08:49:14;25.20;66.20
69747;DHT22;57018;50.278;19.134;2022-08-02T08:51:40;25.40;65.90
69747;DHT22;57018;50.278;19.134;2022-08-02T08:54:11;25.40;65.70
69747;DHT22;57018;50.278;19.134;2022-08-02T08:56:38;25.20;65.70
69747;DHT22;57018;50.278;19.134;2022-08-02T08:59:05;25.30;65.80
69747;DHT22;57018;50.278;19.134;2022-08-02T09:01:33;25.40;65.00
69747;DHT22;57018;50.278;19.134;2022-08-02T09:04:00;25.20;64.40
69747;DHT22;57018;50.278;19.134;2022-08-02T09:06:26;25.20;64.40
69747;DHT22;57018;50.278;19.134;2022-08-02T09:08:53;25.30;63.80
69747;DHT22;57018;50.278;19.134;2022-08-02T09:11:22;25.50;63.60
69747;DHT22;57018;50.278;19.134;2022-08-02T09:13:56;25.30;63.90
69747;DHT22;57018;50.278;19.134;2022-08-02T09:16:32;25.20;63.80
69747;DHT22;57018;50.278;19.134;2022-08-02T09:19:01;25.50;63.90
69747;DHT22;57018;50.278;19.134;2022-08-02T09:21:36;25.80;63.00
69747;DHT22;57018;50.278;19.134;2022-08-02T09:24:13;26.00;62.50
69747;DHT22;57018;50.278;19.134;2022-08-02T09:26:32;26.50;60.50
69747;DHT22;57018;50.278;19.134;2022-08-02T09:29:00;27.00;59.50
69747;DHT22;57018;50.278;19.134;2022-08-02T09:31:27;27.30;58.60
69747;DHT22;57018;50.278;19.134;2022-08-02T09:33:55;27.50;57.40
69747;DHT22;57018;50.278;19.134;2022-08-02T09:36:23;27.20;57.50
69747;DHT22;57018;50.278;19.134;2022-08-02T09:38:55;26.90;58.20
69747;DHT22;57018;50.278;19.134;2022-08-02T09:41:27;26.40;59.30
69747;DHT22;57018;50.278;19.134;2022-08-02T09:43:55;26.00;61.50
69747;DHT22;57018;50.278;19.134;2022-08-02T09:48:53;25.40;63.10
69747;DHT22;57018;50.278;19.134;2022-08-02T09:51:25;25.60;63.00
69747;DHT22;57018;50.278;19.134;2022-08-02T09:53:54;25.80;62.60
69747;DHT22;57018;50.278;19.134;2022-08-02T09:56:23;25.80;62.60
69747;DHT22;57018;50.278;19.134;2022-08-02T09:58:50;25.90;61.50
69747;DHT22;57018;50.278;19.134;2022-08-02T10:01:20;25.90;61.90
69747;DHT22;57018;50.278;19.134;2022-08-02T10:04:02;26.20;60.90
69747;DHT22;57018;50.278;19.134;2022-08-02T10:06:26;26.20;61.10
69747;DHT22;57018;50.278;19.134;2022-08-02T10:08:53;26.60;59.00
69747;DHT22;57018;50.278;19.134;2022-08-02T10:11:22;26.90;58.10
69747;DHT22;57018;50.278;19.134;2022-08-02T10:13:49;27.40;56.90
69747;DHT22;57018;50.278;19.134;2022-08-02T10:16:18;27.80;55.50
69747;DHT22;57018;50.278;19.134;2022-08-02T10:18:46;27.90;54.20
69747;DHT22;57018;50.278;19.134;2022-08-02T10:21:15;27.30;55.60
69747;DHT22;57018;50.278;19.134;2022-08-02T10:23:43;27.30;56.40
69747;DHT22;57018;50.278;19.134;2022-08-02T10:26:12;27.40;56.70
69747;DHT22;57018;50.278;19.134;2022-08-02T10:28:41;27.40;55.80
69747;DHT22;57018;50.278;19.134;2022-08-02T10:31:09;27.50;55.70
69747;DHT22;57018;50.278;19.134;2022-08-02T10:33:37;27.50;55.60
69747;DHT22;57018;50.278;19.134;2022-08-02T10:36:05;26.90;57.30
69747;DHT22;57018;50.278;19.134;2022-08-02T10:38:34;26.90;57.60
69747;DHT22;57018;50.278;19.134;2022-08-02T10:41:02;26.60;58.00
69747;DHT22;57018;50.278;19.134;2022-08-02T10:43:40;26.60;58.00
69747;DHT22;57018;50.278;19.134;2022-08-02T10:46:30;26.60;58.70
69747;DHT22;57018;50.278;19.134;2022-08-02T10:49:10;26.60;58.30
69747;DHT22;57018;50.278;19.134;2022-08-02T10:54:41;26.20;60.20
69747;DHT22;57018;50.278;19.134;2022-08-02T10:59:56;25.90;61.60
69747;DHT22;57018;50.278;19.134;2022-08-02T11:02:35;25.60;61.10
69747;DHT22;57018;50.278;19.134;2022-08-02T11:05:07;25.60;62.10
69747;DHT22;57018;50.278;19.134;2022-08-02T11:07:45;25.80;61.30
69747;DHT22;57018;50.278;19.134;2022-08-02T11:13:11;26.20;60.00
69747;DHT22;57018;50.278;19.134;2022-08-02T11:21:30;26.60;57.30
69747;DHT22;57018;50.278;19.134;2022-08-02T11:26:43;27.40;56.10
69747;DHT22;57018;50.278;19.134;2022-08-02T11:29:10;27.50;55.00
69747;DHT22;57018;50.278;19.134;2022-08-02T11:31:41;27.50;54.60
69747;DHT22;57018;50.278;19.134;2022-08-02T11:34:07;27.40;55.10
69747;DHT22;57018;50.278;19.134;2022-08-02T11:36:46;27.50;55.10
69747;DHT22;57018;50.278;19.134;2022-08-02T11:39:13;27.50;54.40
69747;DHT22;57018;50.278;19.134;2022-08-02T11:41:39;27.60;54.70
69747;DHT22;57018;50.278;19.134;2022-08-02T11:44:06;27.50;54.60
69747;DHT22;57018;50.278;19.134;2022-08-02T11:46:32;27.30;55.30
69747;DHT22;57018;50.278;19.134;2022-08-02T11:49:16;26.90;55.30
69747;DHT22;57018;50.278;19.134;2022-08-02T11:51:59;26.70;55.80
69747;DHT22;57018;50.278;19.134;2022-08-02T11:54:35;26.30;57.70
69747;DHT22;57018;50.278;19.134;2022-08-02T11:57:17;26.30;58.40
69747;DHT22;57018;50.278;19.134;2022-08-02T11:59:46;26.20;58.80
69747;DHT22;57018;50.278;19.134;2022-08-02T12:02:14;26.50;57.70
69747;DHT22;57018;50.278;19.134;2022-08-02T12:04:42;26.70;56.70
69747;DHT22;57018;50.278;19.134;2022-08-02T12:07:08;27.30;56.10
69747;DHT22;57018;50.278;19.134;2022-08-02T12:09:35;27.50;55.40
69747;DHT22;57018;50.278;19.134;2022-08-02T12:12:03;27.60;54.60
69747;DHT22;57018;50.278;19.134;2022-08-02T12:14:31;27.40;54.70
69747;DHT22;57018;50.278;19.134;2022-08-02T12:16:58;27.00;54.90
69747;DHT22;57018;50.278;19.134;2022-08-02T12:19:42;27.40;54.50
69747;DHT22;57018;50.278;19.134;2022-08-02T12:22:18;27.60;53.80
69747;DHT22;57018;50.278;19.134;2022-08-02T12:24:47;27.80;53.90
69747;DHT22;57018;50.278;19.134;2022-08-02T12:27:34;27.60;53.70
69747;DHT22;57018;50.278;19.134;2022-08-02T12:30:10;27.50;53.90
69747;DHT22;57018;50.278;19.134;2022-08-02T12:32:30;27.30;53.40
69747;DHT22;57018;50.278;19.134;2022-08-02T12:35:11;27.30;53.20
69747;DHT22;57018;50.278;19.134;2022-08-02T12:37:41;27.20;52.70
69747;DHT22;57018;50.278;19.134;2022-08-02T12:42:54;27.50;52.60
69747;DHT22;57018;50.278;19.134;2022-08-02T12:45:21;27.60;52.60
69747;DHT22;57018;50.278;19.134;2022-08-02T12:47:50;27.40;53.30
69747;DHT22;57018;50.278;19.134;2022-08-02T12:50:19;27.40;53.30
69747;DHT22;57018;50.278;19.134;2022-08-02T12:52:47;27.30;53.70
69747;DHT22;57018;50.278;19.134;2022-08-02T12:55:17;27.30;53.00
69747;DHT22;57018;50.278;19.134;2022-08-02T12:57:52;27.20;53.60
69747;DHT22;57018;50.278;19.134;2022-08-02T13:00:27;27.10;54.70
69747;DHT22;57018;50.278;19.134;2022-08-02T13:02:53;26.70;55.40
69747;DHT22;57018;50.278;19.134;2022-08-02T13:05:19;26.70;54.40
69747;DHT22;57018;50.278;19.134;2022-08-02T13:07:46;26.60;54.40
69747;DHT22;57018;50.278;19.134;2022-08-02T13:10:13;26.70;54.60
69747;DHT22;57018;50.278;19.134;2022-08-02T13:12:39;26.80;54.30
69747;DHT22;57018;50.278;19.134;2022-08-02T13:15:07;26.50;53.70
69747;DHT22;57018;50.278;19.134;2022-08-02T13:17:33;26.40;54.80
69747;DHT22;57018;50.278;19.134;2022-08-02T13:19:59;26.30;55.70
69747;DHT22;57018;50.278;19.134;2022-08-02T13:22:25;26.00;56.30
69747;DHT22;57018;50.278;19.134;2022-08-02T13:24:51;25.90;56.70
69747;DHT22;57018;50.278;19.134;2022-08-02T13:27:19;26.00;56.50
69747;DHT22;57018;50.278;19.134;2022-08-02T13:29:45;26.10;56.10
69747;DHT22;57018;50.278;19.134;2022-08-02T13:32:11;26.30;56.30
69747;DHT22;57018;50.278;19.134;2022-08-02T13:34:37;26.60;54.90
69747;DHT22;57018;50.278;19.134;2022-08-02T13:37:04;26.60;54.60
69747;DHT22;57018;50.278;19.134;2022-08-02T13:39:31;26.70;55.60
69747;DHT22;57018;50.278;19.134;2022-08-02T13:41:57;26.40;56.10
69747;DHT22;57018;50.278;19.134;2022-08-02T13:44:23;26.30;57.90
69747;DHT22;57018;50.278;19.134;2022-08-02T13:46:49;26.00;58.60
69747;DHT22;57018;50.278;19.134;2022-08-02T13:49:16;25.90;59.00
69747;DHT22;57018;50.278;19.134;2022-08-02T13:51:42;25.80;59.50
69747;DHT22;57018;50.278;19.134;2022-08-02T13:54:08;25.90;59.20
69747;DHT22;57018;50.278;19.134;2022-08-02T13:56:34;25.70;58.30
69747;DHT22;57018;50.278;19.134;2022-08-02T13:59:02;25.60;57.40
69747;DHT22;57018;50.278;19.134;2022-08-02T14:01:29;25.60;57.90
69747;DHT22;57018;50.278;19.134;2022-08-02T14:03:55;25.90;57.80
69747;DHT22;57018;50.278;19.134;2022-08-02T14:06:22;26.00;57.10
69747;DHT22;57018;50.278;19.134;2022-08-02T14:08:48;26.10;57.00
69747;DHT22;57018;50.278;19.134;2022-08-02T14:11:14;26.30;56.70
69747;DHT22;57018;50.278;19.134;2022-08-02T14:13:40;26.20;56.20
69747;DHT22;57018;50.278;19.134;2022-08-02T14:16:06;26.30;56.10
69747;DHT22;57018;50.278;19.134;2022-08-02T14:18:33;26.20;56.20
69747;DHT22;57018;50.278;19.134;2022-08-02T14:20:59;26.40;55.60
69747;DHT22;57018;50.278;19.134;2022-08-02T14:23:25;26.40;54.00
69747;DHT22;57018;50.278;19.134;2022-08-02T14:25:51;26.40;53.50
69747;DHT22;57018;50.278;19.134;2022-08-02T14:28:17;26.40;54.00
69747;DHT22;57018;50.278;19.134;2022-08-02T14:30:44;26.30;55.00
69747;DHT22;57018;50.278;19.134;2022-08-02T14:33:10;26.20;54.90
69747;DHT22;57018;50.278;19.134;2022-08-02T14:35:38;26.20;54.40
69747;DHT22;57018;50.278;19.134;2022-08-02T14:38:04;26.20;55.20
69747;DHT22;57018;50.278;19.134;2022-08-02T14:40:30;26.20;55.20
69747;DHT22;57018;50.278;19.134;2022-08-02T14:42:58;26.10;55.10
69747;DHT22;57018;50.278;19.134;2022-08-02T14:45:24;26.20;55.40
69747;DHT22;57018;50.278;19.134;2022-08-02T14:47:52;26.00;56.00
69747;DHT22;57018;50.278;19.134;2022-08-02T14:50:18;26.00;56.20
69747;DHT22;57018;50.278;19.134;2022-08-02T14:52:46;26.10;56.30
69747;DHT22;57018;50.278;19.134;2022-08-02T14:55:12;26.00;55.50
69747;DHT22;57018;50.278;19.134;2022-08-02T14:57:39;25.90;56.10
69747;DHT22;57018;50.278;19.134;2022-08-02T15:00:06;26.00;56.30
69747;DHT22;57018;50.278;19.134;2022-08-02T15:02:32;26.10;56.10
69747;DHT22;57018;50.278;19.134;2022-08-02T15:04:58;26.00;56.20
69747;DHT22;57018;50.278;19.134;2022-08-02T15:07:24;26.00;56.60
69747;DHT22;57018;50.278;19.134;2022-08-02T15:09:51;25.80;56.70
69747;DHT22;57018;50.278;19.134;2022-08-02T15:12:17;26.00;56.60
69747;DHT22;57018;50.278;19.134;2022-08-02T15:14:43;26.00;56.50
69747;DHT22;57018;50.278;19.134;2022-08-02T15:17:09;26.00;57.00
69747;DHT22;57018;50.278;19.134;2022-08-02T15:19:37;26.00;56.80
69747;DHT22;57018;50.278;19.134;2022-08-02T15:22:03;26.10;57.10
69747;DHT22;57018;50.278;19.134;2022-08-02T15:24:29;26.20;56.40
69747;DHT22;57018;50.278;19.134;2022-08-02T15:26:55;26.30;55.80
69747;DHT22;57018;50.278;19.134;2022-08-02T15:29:21;26.20;55.60
69747;DHT22;57018;50.278;19.134;2022-08-02T15:31:48;26.20;55.80
69747;DHT22;57018;50.278;19.134;2022-08-02T15:34:14;25.90;55.30
69747;DHT22;57018;50.278;19.134;2022-08-02T15:36:40;26.00;55.30
69747;DHT22;57018;50.278;19.134;2022-08-02T15:39:06;26.00;55.20
69747;DHT22;57018;50.278;19.134;2022-08-02T15:41:32;25.70;56.10
69747;DHT22;57018;50.278;19.134;2022-08-02T15:43:58;25.80;56.50
69747;DHT22;57018;50.278;19.134;2022-08-02T15:46:26;25.90;56.20
69747;DHT22;57018;50.278;19.134;2022-08-02T15:48:52;25.80;55.90
69747;DHT22;57018;50.278;19.134;2022-08-02T15:51:19;25.80;55.90
69747;DHT22;57018;50.278;19.134;2022-08-02T15:53:45;25.80;54.50
69747;DHT22;57018;50.278;19.134;2022-08-02T15:56:11;25.80;54.40